createdAt,value
2023-04-19T00:00:15.982Z,65.55
2023-04-19T00:02:44.784Z,65.53
2023-04-19T00:05:13.990Z,65.55
2023-04-19T00:07:43.773Z,65.59
2023-04-19T00:10:12.046Z,65.51
2023-04-19T00:12:40.530Z,65.49
2023-04-19T00:15:10.028Z,65.59
2023-04-19T00:17:38.957Z,65.54
2023-04-19T00:20:08.532Z,65.45
2023-04-19T00:22:37.014Z,65.17
2023-04-19T00:25:05.640Z,64.91
2023-04-19T00:27:34.688Z,64.75
2023-04-19T00:30:03.062Z,64.70
2023-04-19T00:32:33.220Z,64.96
2023-04-19T00:35:01.709Z,65.20
2023-04-19T00:37:30.352Z,65.48
2023-04-19T00:39:58.743Z,65.84
2023-04-19T00:42:28.032Z,66.10
2023-04-19T00:44:56.421Z,66.34
2023-04-19T00:47:24.843Z,66.54
2023-04-19T00:49:53.471Z,66.83
2023-04-19T00:52:22.768Z,67.00
2023-04-19T00:54:51.375Z,67.07
2023-04-19T00:57:22.193Z,67.17
2023-04-19T00:59:52.203Z,67.17
2023-04-19T01:02:21.427Z,67.17
2023-04-19T01:04:51.749Z,67.33
2023-04-19T01:07:20.623Z,67.50
2023-04-19T01:09:48.902Z,67.62
2023-04-19T01:12:17.216Z,67.52
2023-04-19T01:14:46.280Z,67.55
2023-04-19T01:17:14.843Z,67.62
2023-04-19T01:19:43.329Z,67.71
2023-04-19T01:22:21.744Z,67.61
2023-04-19T01:24:50.117Z,67.67
2023-04-19T01:27:20.137Z,67.99
2023-04-19T01:29:48.643Z,68.07
2023-04-19T01:32:17.713Z,68.10
2023-04-19T01:34:45.984Z,68.18
2023-04-19T01:37:14.373Z,68.26
2023-04-19T01:39:43.666Z,68.29
2023-04-19T01:42:12.244Z,68.03
2023-04-19T01:44:40.519Z,67.68
2023-04-19T01:47:09.049Z,67.38
2023-04-19T01:49:38.009Z,67.30
2023-04-19T01:52:06.584Z,67.01
2023-04-19T01:54:35.056Z,66.73
2023-04-19T01:57:03.850Z,66.56
2023-04-19T01:59:32.737Z,66.30
2023-04-19T02:02:01.103Z,66.03
2023-04-19T02:04:30.004Z,65.97
2023-04-19T02:06:59.917Z,66.05
2023-04-19T02:09:29.115Z,65.85
2023-04-19T02:11:58.004Z,65.70
2023-04-19T02:14:26.587Z,65.72
2023-04-19T02:16:55.461Z,65.80
2023-04-19T02:19:24.060Z,65.76
2023-04-19T02:21:53.974Z,65.69
2023-04-19T02:24:22.250Z,65.62
2023-04-19T02:26:50.933Z,65.69
2023-04-19T02:29:19.630Z,65.79
2023-04-19T02:31:48.114Z,65.86
2023-04-19T02:34:16.737Z,65.86
2023-04-19T02:36:45.401Z,65.91
2023-04-19T02:39:13.748Z,65.90
2023-04-19T02:41:42.126Z,65.86
2023-04-19T02:44:10.914Z,65.62
2023-04-19T02:46:39.906Z,65.33
2023-04-19T02:49:09.619Z,65.30
2023-04-19T02:51:38.985Z,65.14
2023-04-19T02:54:08.006Z,64.98
2023-04-19T02:56:36.286Z,64.62
2023-04-19T02:59:04.967Z,64.62
2023-04-19T03:01:33.729Z,64.65
2023-04-19T03:04:04.707Z,64.53
2023-04-19T03:06:33.583Z,64.51
2023-04-19T03:09:03.500Z,64.49
2023-04-19T03:11:31.978Z,64.52
2023-04-19T03:14:00.977Z,64.46
2023-04-19T03:16:30.624Z,64.35
2023-04-19T03:18:59.671Z,64.44
2023-04-19T03:21:29.585Z,64.48
2023-04-19T03:23:58.091Z,64.66
2023-04-19T03:26:26.857Z,64.83
2023-04-19T03:28:57.801Z,65.07
2023-04-19T03:31:41.067Z,65.36
2023-04-19T03:34:11.352Z,65.51
2023-04-19T03:36:42.065Z,65.64
2023-04-19T03:39:10.647Z,65.85
2023-04-19T03:41:40.457Z,65.98
2023-04-19T03:44:17.603Z,66.00
2023-04-19T03:46:46.887Z,65.99
2023-04-19T03:49:16.758Z,65.98
2023-04-19T03:51:48.012Z,66.16
2023-04-19T03:54:17.198Z,66.08
2023-04-19T03:56:45.881Z,66.11
2023-04-19T03:59:14.359Z,66.07
2023-04-19T04:01:43.613Z,66.11
2023-04-19T04:04:12.931Z,66.02
2023-04-19T04:06:41.985Z,66.03
2023-04-19T04:09:10.643Z,66.15
2023-04-19T04:11:38.907Z,66.16
2023-04-19T04:14:07.512Z,66.20
2023-04-19T04:16:38.319Z,66.16
2023-04-19T04:19:07.948Z,66.26
2023-04-19T04:21:38.979Z,66.22
2023-04-19T04:24:08.279Z,66.20
2023-04-19T04:26:58.261Z,66.04
2023-04-19T04:29:30.536Z,65.92
2023-04-19T04:32:01.439Z,65.85
2023-04-19T04:34:36.107Z,65.69
2023-04-19T04:37:09.101Z,65.57
2023-04-19T04:39:40.161Z,65.65
2023-04-19T04:42:10.469Z,65.53
2023-04-19T04:44:39.350Z,65.47
2023-04-19T04:47:08.455Z,65.37
2023-04-19T04:49:42.054Z,65.05
2023-04-19T04:52:10.746Z,64.68
2023-04-19T04:54:46.330Z,64.53
2023-04-19T04:57:22.341Z,64.43
2023-04-19T04:59:50.843Z,64.26
2023-04-19T05:02:19.957Z,64.22
2023-04-19T05:04:48.674Z,63.95
2023-04-19T05:07:17.044Z,63.90
2023-04-19T05:09:45.764Z,63.72
2023-04-19T05:12:15.779Z,63.64
2023-04-19T05:14:44.160Z,63.50
2023-04-19T05:17:12.640Z,63.28
2023-04-19T05:19:41.235Z,63.02
2023-04-19T05:22:09.738Z,62.92
2023-04-19T05:24:41.839Z,62.94
2023-04-19T05:27:11.428Z,62.85
2023-04-19T05:29:39.758Z,62.64
2023-04-19T05:32:08.572Z,62.54
2023-04-19T05:35:07.051Z,62.46
2023-04-19T05:37:36.942Z,62.63
2023-04-19T05:40:09.791Z,62.53
2023-04-19T05:42:39.125Z,62.24
2023-04-19T05:45:09.571Z,61.78
2023-04-19T05:47:38.581Z,61.63
2023-04-19T05:50:18.409Z,61.46
2023-04-19T05:52:52.910Z,61.54
2023-04-19T05:55:21.508Z,61.71
2023-04-19T05:57:50.383Z,61.84
2023-04-19T06:00:19.159Z,61.65
2023-04-19T06:02:53.084Z,61.12
2023-04-19T06:05:23.816Z,60.87
2023-04-19T06:08:02.595Z,60.67
2023-04-19T06:10:44.584Z,60.60
2023-04-19T06:13:20.117Z,60.69
2023-04-19T06:15:49.096Z,60.34
2023-04-19T06:18:20.241Z,60.18
2023-04-19T06:20:48.819Z,60.03
2023-04-19T06:23:19.135Z,59.65
2023-04-19T06:25:49.243Z,59.18
2023-04-19T06:28:17.728Z,58.67
2023-04-19T06:30:46.192Z,58.42
2023-04-19T06:33:14.473Z,57.87
2023-04-19T06:35:43.060Z,57.65
2023-04-19T06:38:11.451Z,57.57
2023-04-19T06:40:39.858Z,57.55
2023-04-19T06:43:08.823Z,57.50
2023-04-19T06:45:37.209Z,57.73
2023-04-19T06:48:05.908Z,57.84
2023-04-19T06:50:34.553Z,58.12
2023-04-19T06:53:04.722Z,57.88
2023-04-19T06:55:33.972Z,57.57
2023-04-19T06:58:02.972Z,57.42
2023-04-19T07:00:31.661Z,57.41
2023-04-19T07:03:00.897Z,57.56
2023-04-19T07:05:30.627Z,57.55
2023-04-19T07:07:59.373Z,57.57
2023-04-19T07:10:28.043Z,57.37
2023-04-19T07:16:20.868Z,57.26
2023-04-19T07:18:49.726Z,57.10
2023-04-19T07:21:17.989Z,57.26
2023-04-19T07:23:46.379Z,57.45
2023-04-19T07:26:15.336Z,57.70
2023-04-19T07:28:43.708Z,57.89
2023-04-19T07:31:19.052Z,57.92
2023-04-19T07:33:47.632Z,57.93
2023-04-19T07:36:15.908Z,58.17
2023-04-19T07:38:44.813Z,58.20
2023-04-19T07:41:13.080Z,58.44
2023-04-19T07:43:41.862Z,58.53
2023-04-19T07:46:13.890Z,58.56
2023-04-19T07:48:42.303Z,58.51
2023-04-19T07:51:10.730Z,58.12
2023-04-19T07:53:40.200Z,58.18
2023-04-19T07:56:09.098Z,58.27
2023-04-19T07:58:38.485Z,58.57
2023-04-19T08:01:07.357Z,58.98
2023-04-19T08:03:37.290Z,59.33
2023-04-19T08:06:07.637Z,59.44
2023-04-19T08:08:37.005Z,59.44
2023-04-19T08:11:06.521Z,59.47
2023-04-19T08:13:34.902Z,59.58
2023-04-19T08:16:41.475Z,59.96
2023-04-19T08:18:52.747Z,60.30
2023-04-19T08:21:26.076Z,60.28
2023-04-19T08:23:59.641Z,60.52
2023-04-19T08:26:28.018Z,60.77
2023-04-19T08:28:56.602Z,60.92
2023-04-19T08:31:24.901Z,60.90
2023-04-19T08:33:53.593Z,61.20
2023-04-19T08:36:35.410Z,61.80
2023-04-19T08:39:14.764Z,61.79
2023-04-19T08:41:48.249Z,61.95
2023-04-19T08:44:32.508Z,62.36
2023-04-19T08:47:05.126Z,62.96
2023-04-19T08:49:38.146Z,63.48
2023-04-19T08:52:08.534Z,63.97
2023-04-19T08:54:36.913Z,64.18
2023-04-19T08:57:05.396Z,64.61
2023-04-19T08:59:33.986Z,65.21
2023-04-19T09:02:02.841Z,65.59
2023-04-19T09:04:37.120Z,65.94
2023-04-19T09:07:06.491Z,66.54
2023-04-19T09:09:43.040Z,66.93
2023-04-19T09:12:20.642Z,67.47
2023-04-19T09:17:20.495Z,67.96
2023-04-19T09:19:49.690Z,68.21
2023-04-19T09:22:18.822Z,68.45
2023-04-19T09:27:28.227Z,68.70
2023-04-19T09:29:57.446Z,68.83
2023-04-19T09:32:26.782Z,69.08
2023-04-19T09:34:59.885Z,69.23
2023-04-19T09:37:51.454Z,69.33
2023-04-19T09:40:24.143Z,69.55
2023-04-19T09:51:20.298Z,70.05
2023-04-19T09:53:48.580Z,70.30
2023-04-19T09:56:17.072Z,70.54
2023-04-19T09:58:51.280Z,70.70
2023-04-19T10:01:23.042Z,70.88
2023-04-19T10:03:52.886Z,71.06
2023-04-19T10:08:54.496Z,71.65
2023-04-19T10:11:23.122Z,71.78
2023-04-19T10:13:54.213Z,71.96
2023-04-19T10:16:22.910Z,71.98
2023-04-19T10:18:52.760Z,72.12
2023-04-19T10:21:21.166Z,71.95
2023-04-19T10:23:50.511Z,72.02
2023-04-19T10:26:18.901Z,72.05
2023-04-19T10:28:48.018Z,71.99
2023-04-19T10:31:17.126Z,71.96
2023-04-19T10:33:45.449Z,71.78
2023-04-19T10:36:17.879Z,71.67
2023-04-19T10:38:51.626Z,71.67
2023-04-19T10:41:20.055Z,71.47
2023-04-19T10:44:08.800Z,71.48
2023-04-19T10:46:40.399Z,71.35
2023-04-19T10:49:10.264Z,71.24
2023-04-19T10:51:40.056Z,71.24
2023-04-19T10:54:09.757Z,71.22
2023-04-19T10:56:39.569Z,71.08
2023-04-19T10:59:15.790Z,70.91
2023-04-19T11:01:45.850Z,70.59
2023-04-19T11:04:21.671Z,70.50
2023-04-19T11:07:12.127Z,70.02
2023-04-19T11:10:05.147Z,70.14
2023-04-19T11:12:34.032Z,70.47
2023-04-19T11:15:03.081Z,70.86
2023-04-19T11:17:32.464Z,70.83
2023-04-19T11:20:02.352Z,70.40
2023-04-19T11:22:32.655Z,70.05
2023-04-19T11:25:12.336Z,69.86
2023-04-19T11:27:41.919Z,69.76
2023-04-19T11:30:15.185Z,69.73
2023-04-19T11:32:52.308Z,70.07
2023-04-19T11:35:21.830Z,69.79
2023-04-19T11:37:50.385Z,70.38
2023-04-19T11:40:19.769Z,70.83
2023-04-19T11:42:54.100Z,70.66
2023-04-19T11:45:40.123Z,70.23
2023-04-19T11:48:15.695Z,70.72
2023-04-19T11:50:46.051Z,70.84
2023-04-19T11:53:21.334Z,70.59
2023-04-19T11:55:51.511Z,70.40
2023-04-19T11:58:45.037Z,70.44
2023-04-19T12:01:21.486Z,70.62
2023-04-19T12:03:54.349Z,70.94
2023-04-19T12:06:33.622Z,71.12
2023-04-19T12:09:08.097Z,71.25
2023-04-19T12:11:44.805Z,71.37
2023-04-19T12:14:14.954Z,71.48
2023-04-19T12:16:45.258Z,71.71
2023-04-19T12:19:15.296Z,71.88
2023-04-19T12:21:44.329Z,72.01
2023-04-19T12:24:15.996Z,71.87
2023-04-19T12:26:57.790Z,71.78
2023-04-19T12:29:28.232Z,72.00
2023-04-19T12:31:56.568Z,71.73
2023-04-19T12:34:25.155Z,71.74
2023-04-19T12:36:53.888Z,71.91
2023-04-19T12:39:23.678Z,71.65
2023-04-19T12:41:52.236Z,71.56
2023-04-19T12:44:20.922Z,71.10
2023-04-19T12:46:49.851Z,71.36
2023-04-19T12:49:19.636Z,71.57
2023-04-19T12:51:48.109Z,71.64
2023-04-19T12:54:16.785Z,71.57
2023-04-19T12:56:45.433Z,71.30
2023-04-19T12:59:14.521Z,71.10
2023-04-19T13:01:43.189Z,70.76
2023-04-19T13:04:12.157Z,70.54
2023-04-19T13:06:41.247Z,69.89
2023-04-19T13:11:41.269Z,68.74
2023-04-19T13:14:32.284Z,68.26
2023-04-19T13:17:00.791Z,68.35
2023-04-19T13:19:29.245Z,67.90
2023-04-19T13:21:57.848Z,67.27
2023-04-19T13:24:26.529Z,66.48
2023-04-19T13:26:55.269Z,66.27
2023-04-19T13:29:23.989Z,66.40
2023-04-19T13:31:52.315Z,65.87
2023-04-19T13:34:21.355Z,65.25
2023-04-19T13:36:50.450Z,64.94
2023-04-19T13:39:18.748Z,64.90
2023-04-19T13:41:47.364Z,65.05
2023-04-19T13:44:15.930Z,65.46
2023-04-19T13:46:44.966Z,65.41
2023-04-19T13:49:13.673Z,64.96
2023-04-19T13:51:49.562Z,64.63
2023-04-19T13:54:20.013Z,64.47
2023-04-19T13:56:51.311Z,64.56
2023-04-19T13:59:21.216Z,64.33
2023-04-19T14:01:49.533Z,63.85
2023-04-19T14:04:18.247Z,63.66
2023-04-19T14:06:48.193Z,63.09
2023-04-19T14:09:17.000Z,62.66
2023-04-19T14:11:45.490Z,62.57
2023-04-19T14:14:13.774Z,62.51
2023-04-19T14:16:42.256Z,62.53
2023-04-19T14:19:11.317Z,62.04
2023-04-19T14:21:39.804Z,62.02
2023-04-19T14:24:08.275Z,62.29
2023-04-19T14:26:36.656Z,62.41
2023-04-19T14:29:05.147Z,62.56
2023-04-19T14:31:34.705Z,62.23
2023-04-19T14:34:03.323Z,62.19
2023-04-19T14:36:31.717Z,61.89
2023-04-19T14:39:00.386Z,61.79
2023-04-19T14:41:28.873Z,61.72
2023-04-19T14:43:57.859Z,60.98
2023-04-19T14:46:26.166Z,60.77
2023-04-19T14:48:54.716Z,60.66
2023-04-19T14:51:23.097Z,60.11
2023-04-19T14:53:51.591Z,59.92
2023-04-19T14:56:20.364Z,59.88
2023-04-19T14:58:48.740Z,59.98
2023-04-19T15:01:17.176Z,60.29
2023-04-19T15:03:46.490Z,60.14
2023-04-19T15:06:15.206Z,60.26
2023-04-19T15:08:43.890Z,60.38
2023-04-19T15:11:12.374Z,60.62
2023-04-19T15:13:41.181Z,60.67
2023-04-19T15:16:09.753Z,60.84
2023-04-19T15:18:38.016Z,60.86
2023-04-19T15:21:06.706Z,61.09
2023-04-19T15:23:35.696Z,61.16
2023-04-19T15:26:04.597Z,61.33
2023-04-19T15:28:35.466Z,61.53
2023-04-19T15:31:04.677Z,61.31
2023-04-19T15:33:36.076Z,61.35
2023-04-19T15:36:05.317Z,61.17
2023-04-19T15:38:33.778Z,60.94
2023-04-19T15:41:02.340Z,60.92
2023-04-19T15:43:30.813Z,61.00
2023-04-19T15:45:59.208Z,60.89
2023-04-19T15:48:28.605Z,60.56
2023-04-19T15:50:56.885Z,60.57
2023-04-19T15:53:25.452Z,60.58
2023-04-19T15:55:55.799Z,60.67
2023-04-19T15:58:24.561Z,60.73
2023-04-19T16:00:53.149Z,60.82
2023-04-19T16:03:21.657Z,60.90
2023-04-19T16:05:52.885Z,60.75
2023-04-19T16:08:21.457Z,60.69
2023-04-19T16:10:50.172Z,60.79
2023-04-19T16:13:18.722Z,60.95
2023-04-19T16:15:47.514Z,61.00
2023-04-19T16:18:16.235Z,61.20
2023-04-19T16:20:44.492Z,61.45
2023-04-19T16:23:14.863Z,61.68
2023-04-19T16:25:43.395Z,61.89
2023-04-19T16:28:12.275Z,62.13
2023-04-19T16:30:40.552Z,62.00
2023-04-19T16:33:09.119Z,61.99
2023-04-19T16:35:37.712Z,62.02
2023-04-19T16:38:07.252Z,62.24
2023-04-19T16:40:35.715Z,62.43
2023-04-19T16:43:05.100Z,62.94
2023-04-19T16:45:33.612Z,63.40
2023-04-19T16:48:02.354Z,63.72
2023-04-19T16:50:31.162Z,63.97
2023-04-19T16:52:59.637Z,64.04
2023-04-19T16:55:28.114Z,64.04
2023-04-19T16:57:56.698Z,64.41
2023-04-19T17:00:25.078Z,63.97
2023-04-19T17:02:54.095Z,63.78
2023-04-19T17:05:22.461Z,63.84
2023-04-19T17:07:52.358Z,63.94
2023-04-19T17:10:21.701Z,64.23
2023-04-19T17:12:50.047Z,64.54
2023-04-19T17:15:19.237Z,64.52
2023-04-19T17:17:47.760Z,64.48
2023-04-19T17:20:16.641Z,64.70
2023-04-19T17:22:44.989Z,65.05
2023-04-19T17:25:13.574Z,65.24
2023-04-19T17:27:42.157Z,65.11
2023-04-19T17:30:10.992Z,64.98
2023-04-19T17:32:39.959Z,64.79
2023-04-19T17:35:08.724Z,64.65
2023-04-19T17:37:37.507Z,64.63
2023-04-19T17:40:06.943Z,64.65
2023-04-19T17:42:35.900Z,64.29
2023-04-19T17:45:06.840Z,64.18
2023-04-19T17:47:36.077Z,64.02
2023-04-19T17:50:06.466Z,64.07
2023-04-19T17:52:35.249Z,64.28
2023-04-19T17:55:04.847Z,64.35
2023-04-19T17:57:34.360Z,64.52
2023-04-19T18:00:06.893Z,64.45
2023-04-19T18:02:37.941Z,64.50
2023-04-19T18:05:07.986Z,64.60
2023-04-19T18:07:38.941Z,64.63
2023-04-19T18:10:07.924Z,64.76
2023-04-19T18:12:36.920Z,64.78
2023-04-19T18:15:06.627Z,65.00
2023-04-19T18:17:35.930Z,65.24
2023-04-19T18:20:05.974Z,65.36
2023-04-19T18:22:34.219Z,65.59
2023-04-19T18:25:02.606Z,65.88
2023-04-19T18:27:32.609Z,66.13
2023-04-19T18:30:04.107Z,66.14
2023-04-19T18:32:32.991Z,66.43
2023-04-19T18:35:04.518Z,66.67
2023-04-19T18:37:33.414Z,66.58
2023-04-19T18:40:02.325Z,66.75
2023-04-19T18:42:30.770Z,67.06
2023-04-19T18:44:59.144Z,67.07
2023-04-19T18:47:27.582Z,67.22
2023-04-19T18:52:27.453Z,67.70
2023-04-19T18:54:56.555Z,67.94
2023-04-19T18:57:27.590Z,67.97
2023-04-19T18:59:56.721Z,68.00
2023-04-19T19:02:25.785Z,67.87
2023-04-19T19:05:01.045Z,67.73
2023-04-19T19:10:06.395Z,66.85
2023-04-19T19:12:45.403Z,66.57
2023-04-19T19:15:14.005Z,66.36
2023-04-19T19:17:43.818Z,66.17
2023-04-19T19:20:12.416Z,66.26
2023-04-19T19:22:41.182Z,66.03
2023-04-19T19:25:11.418Z,65.95
2023-04-19T19:27:40.109Z,66.04
2023-04-19T19:30:09.337Z,66.07
2023-04-19T19:32:38.378Z,66.42
2023-04-19T19:35:09.648Z,66.35
2023-04-19T19:37:37.997Z,66.43
2023-04-19T19:42:39.671Z,66.16
2023-04-19T19:45:09.391Z,65.99
2023-04-19T19:47:44.503Z,65.93
2023-04-19T19:50:57.756Z,66.21
2023-04-19T19:53:02.985Z,66.40
2023-04-19T19:55:32.591Z,66.51
2023-04-19T19:58:26.222Z,66.47
2023-04-19T20:00:52.644Z,66.43
2023-04-19T20:03:35.622Z,66.40
2023-04-19T20:08:43.731Z,66.63
2023-04-19T20:11:12.924Z,66.50
2023-04-19T20:13:41.313Z,66.50
2023-04-19T20:16:11.163Z,66.48
2023-04-19T20:18:39.584Z,66.65
2023-04-19T20:21:07.872Z,66.89
2023-04-19T20:23:39.734Z,66.77
2023-04-19T20:26:08.517Z,66.67
2023-04-19T20:28:37.002Z,66.70
2023-04-19T20:31:05.396Z,66.70
2023-04-19T20:33:34.283Z,67.00
2023-04-19T20:36:03.986Z,67.41
2023-04-19T20:38:32.353Z,67.96
2023-04-19T20:41:00.936Z,68.18
2023-04-19T20:43:29.527Z,68.16
2023-04-19T20:45:58.036Z,68.25
2023-04-19T20:48:26.684Z,68.26
2023-04-19T20:50:55.067Z,68.49
2023-04-19T20:53:23.851Z,68.57
2023-04-19T20:55:52.123Z,68.40
2023-04-19T20:58:20.505Z,68.38
2023-04-19T21:00:50.054Z,68.13
2023-04-19T21:03:18.548Z,68.01
2023-04-19T21:05:47.086Z,68.10
2023-04-19T21:08:16.376Z,68.10
2023-04-19T21:10:44.853Z,68.03
2023-04-19T21:13:13.333Z,67.97
2023-04-19T21:15:41.770Z,67.99
2023-04-19T21:18:10.303Z,67.91
2023-04-19T21:20:39.701Z,67.66
2023-04-19T21:23:07.915Z,67.43
2023-04-19T21:25:36.460Z,67.30
2023-04-19T21:28:04.750Z,67.24
2023-04-19T21:30:33.220Z,67.16
2023-04-19T21:33:01.764Z,67.13
2023-04-19T21:35:30.281Z,67.21
2023-04-19T21:37:58.684Z,67.46
2023-04-19T21:40:27.362Z,67.40
2023-04-19T21:42:55.925Z,67.66
2023-04-19T21:45:24.303Z,67.65
2023-04-19T21:47:52.844Z,67.87
2023-04-19T21:50:21.178Z,68.16
2023-04-19T21:52:49.545Z,68.31
2023-04-19T21:55:18.831Z,68.48
2023-04-19T21:57:47.320Z,68.59
2023-04-19T22:00:16.347Z,68.65
2023-04-19T22:02:44.678Z,68.87
2023-04-19T22:05:13.901Z,68.85
2023-04-19T22:07:43.084Z,68.74
2023-04-19T22:10:13.757Z,68.86
2023-04-19T22:12:55.046Z,68.88
2023-04-19T22:15:26.925Z,68.98
2023-04-19T22:17:57.605Z,68.98
2023-04-19T22:20:29.347Z,68.83
2023-04-19T22:22:57.519Z,68.88
2023-04-19T22:25:25.898Z,68.93
2023-04-19T22:27:54.380Z,69.01
2023-04-19T22:30:22.856Z,69.03
2023-04-19T22:32:52.405Z,69.06
2023-04-19T22:35:22.660Z,69.09
2023-04-19T22:37:51.393Z,69.00
2023-04-19T22:40:19.645Z,69.11
2023-04-19T22:42:48.136Z,69.23
2023-04-19T22:45:16.607Z,69.14
2023-04-19T22:47:45.692Z,69.06
2023-04-19T22:50:14.299Z,69.01
2023-04-19T22:52:42.885Z,68.89
2023-04-19T22:55:11.360Z,68.80
2023-04-19T22:57:40.029Z,68.78
2023-04-19T23:00:10.972Z,68.67
2023-04-19T23:02:39.992Z,68.64
2023-04-19T23:05:09.256Z,68.96
2023-04-19T23:07:40.408Z,69.24
2023-04-19T23:10:10.567Z,69.11
2023-04-19T23:12:39.720Z,69.04
2023-04-19T23:15:11.204Z,68.78
2023-04-19T23:17:40.009Z,68.44
2023-04-19T23:20:12.468Z,68.42
2023-04-19T23:22:41.327Z,68.36
2023-04-19T23:25:10.321Z,68.11
2023-04-19T23:27:38.802Z,68.09
2023-04-19T23:30:07.890Z,68.02
2023-04-19T23:32:36.819Z,68.00
2023-04-19T23:35:06.189Z,67.88
2023-04-19T23:37:34.972Z,67.89
2023-04-19T23:40:04.893Z,67.95
2023-04-19T23:42:33.981Z,67.88
2023-04-19T23:45:02.253Z,67.94
2023-04-19T23:47:30.882Z,67.85
2023-04-19T23:49:59.425Z,67.73
2023-04-19T23:52:27.919Z,67.69
2023-04-19T23:54:56.304Z,67.69
2023-04-19T23:57:24.884Z,67.62
2023-04-19T23:59:53.249Z,67.88
